Time;durP1;ratioP1;P1;durP2;ratioP2;P2;SDS_P1;SDS_P2;PMS_P1;PMS_P2;Temp;Humidity;BMP_temperature;BMP_pressure;BME280_temperature;BME280_humidity;BME280_pressure;Samples;Min_cycle;Max_cycle;Signal;HPM_P1;HPM_P2
2022/04/19 00:01:37;;;;;;;9.80;3.95;;;;;;;7.67;39.28;101703.16;5039184;28;20055;-77
2022/04/19 00:04:03;;;;;;;8.23;3.47;;;;;;;7.60;39.26;101703.25;5054561;28;20045;-78
2022/04/19 00:06:29;;;;;;;10.13;3.72;;;;;;;7.55;39.59;101708.50;5058627;28;20024;-76
2022/04/19 00:08:54;;;;;;;8.40;3.85;;;;;;;7.51;39.47;101699.00;5021592;28;20113;-78
2022/04/19 00:11:20;;;;;;;7.03;3.85;;;;;;;7.49;39.59;101704.25;5056780;28;20033;-78
2022/04/19 00:13:45;;;;;;;6.70;3.95;;;;;;;7.41;39.91;101700.03;5024311;28;20052;-77
2022/04/19 00:16:11;;;;;;;11.93;4.47;;;;;;;7.44;39.85;101702.56;5056149;28;20040;-78
2022/04/19 00:18:36;;;;;;;12.15;4.95;;;;;;;7.39;40.03;101699.19;5037980;28;20097;-76
2022/04/19 00:21:02;;;;;;;7.78;3.97;;;;;;;7.38;39.71;101694.84;5023619;28;20029;-80
2022/04/19 00:23:28;;;;;;;9.90;4.22;;;;;;;7.25;39.94;101689.81;5037279;28;20041;-75
2022/04/19 00:25:54;;;;;;;10.48;4.97;;;;;;;7.31;39.88;101694.94;5037250;28;20047;-78
2022/04/19 00:28:20;;;;;;;14.85;5.03;;;;;;;7.27;40.15;101692.41;5026667;28;20041;-78
2022/04/19 00:30:47;;;;;;;8.52;4.40;;;;;;;7.15;40.48;101693.41;5027228;28;20033;-76
2022/04/19 00:33:13;;;;;;;12.80;4.32;;;;;;;7.13;40.30;101692.56;5045485;28;20066;-77
2022/04/19 00:35:39;;;;;;;8.13;3.30;;;;;;;7.09;40.30;101683.09;5059891;28;20032;-78
2022/04/19 00:38:05;;;;;;;11.23;4.57;;;;;;;7.16;40.07;101679.53;5058529;28;20491;-77
2022/04/19 00:40:30;;;;;;;8.43;4.68;;;;;;;7.10;40.15;101677.00;5045172;28;20600;-76
2022/04/19 00:42:57;;;;;;;10.32;4.00;;;;;;;7.07;40.46;101684.84;5027988;28;20033;-78
2022/04/19 00:45:23;;;;;;;12.15;4.60;;;;;;;7.02;40.39;101677.13;5026951;28;20131;-76
2022/04/19 00:47:51;;;;;;;10.73;4.72;;;;;;;7.08;40.42;101686.56;5041422;28;20033;-78
2022/04/19 00:50:17;;;;;;;10.93;4.20;;;;;;;7.07;40.31;101680.50;5026941;28;20064;-78
2022/04/19 00:52:44;;;;;;;10.88;4.55;;;;;;;7.01;40.46;101682.31;5038607;28;20070;-77
2022/04/19 00:55:11;;;;;;;9.90;4.43;;;;;;;7.01;40.38;101679.72;5025296;28;20032;-78
2022/04/19 00:57:42;;;;;;;9.30;3.63;;;;;;;6.92;40.77;101685.91;5045466;28;20125;-75
2022/04/19 01:00:12;;;;;;;14.25;4.05;;;;;;;6.86;41.11;101680.75;5042274;28;21415;-77
2022/04/19 01:02:41;;;;;;;10.25;4.30;;;;;;;6.91;40.55;101689.38;5042439;28;20056;-76
2022/04/19 01:05:10;;;;;;;10.95;4.82;;;;;;;6.77;41.18;101688.66;5058475;28;20029;-77
2022/04/19 01:07:37;;;;;;;10.07;4.88;;;;;;;6.86;41.02;101694.63;5045077;28;20045;-77
2022/04/19 01:10:05;;;;;;;12.45;4.07;;;;;;;6.77;41.12;101697.31;5058748;28;20621;-76
2022/04/19 01:15:19;;;;;;;11.75;4.55;;;;;;;6.71;40.90;101689.59;5058165;28;20090;-76
2022/04/19 01:18:08;;;;;;;11.02;4.30;;;;;;;6.77;40.95;101676.53;5044031;28;20148;-78
2022/04/19 01:20:38;;;;;;;9.32;4.10;;;;;;;6.70;41.15;101682.66;5028084;28;20112;-78
2022/04/19 01:23:05;;;;;;;8.45;4.38;;;;;;;6.78;40.76;101678.25;5057579;28;20043;-76
2022/04/19 01:25:33;;;;;;;8.32;3.58;;;;;;;6.73;40.57;101680.06;5043277;28;20150;-78
2022/04/19 01:28:00;;;;;;;9.90;4.30;;;;;;;6.62;40.98;101677.56;5026733;28;20032;-77
2022/04/19 01:30:26;;;;;;;11.55;4.68;;;;;;;6.56;40.63;101676.78;5042274;28;20052;-76
2022/04/19 01:32:53;;;;;;;9.90;5.20;;;;;;;6.78;40.01;101673.06;5038901;28;20407;-78
2022/04/19 01:35:21;;;;;;;8.00;3.83;;;;;;;6.71;40.09;101676.63;5042406;28;20043;-77
2022/04/19 01:37:56;;;;;;;11.10;4.07;;;;;;;6.67;40.13;101680.97;5055673;28;20455;-76
2022/04/19 01:40:28;;;;;;;7.38;3.53;;;;;;;6.64;40.13;101681.00;5043846;28;20021;-78
2022/04/19 01:43:04;;;;;;;11.05;3.95;;;;;;;6.60;40.24;101683.66;5040138;28;20041;-76
2022/04/19 01:45:53;;;;;;;7.47;3.65;;;;;;;6.58;40.11;101682.81;5028213;28;20679;-78
2022/04/19 01:48:21;;;;;;;11.88;4.18;;;;;;;6.57;40.25;101673.28;5024656;28;20054;-76
2022/04/19 01:50:47;;;;;;;11.63;3.97;;;;;;;6.48;40.19;101675.13;5041486;28;20124;-75
2022/04/19 01:53:14;;;;;;;7.65;3.10;;;;;;;6.42;40.27;101682.13;5022870;28;20041;-77
2022/04/19 01:55:42;;;;;;;8.68;4.22;;;;;;;6.36;40.28;101679.56;5057069;28;20234;-78
2022/04/19 01:58:26;;;;;;;7.88;3.58;;;;;;;6.34;40.05;101684.75;5026746;28;20455;-78
2022/04/19 02:00:51;;;;;;;8.60;3.47;;;;;;;6.41;39.89;101676.03;5042820;28;20135;-78
2022/04/19 02:03:20;;;;;;;11.38;4.28;;;;;;;6.36;40.25;101679.56;5041606;28;20048;-77
2022/04/19 02:05:46;;;;;;;6.30;2.95;;;;;;;6.31;39.90;101682.22;5057601;28;20025;-78
2022/04/19 02:08:11;;;;;;;8.80;3.65;;;;;;;6.29;39.88;101678.75;5026613;28;20041;-79
2022/04/19 02:10:39;;;;;;;8.00;3.88;;;;;;;6.28;40.06;101677.91;5026624;28;20041;-78
2022/04/19 02:13:05;;;;;;;7.70;3.78;;;;;;;6.22;40.30;101683.13;5023327;28;20041;-78
2022/04/19 02:15:31;;;;;;;10.57;3.15;;;;;;;6.19;40.07;101682.28;5042609;28;20033;-77
2022/04/19 02:18:01;;;;;;;11.27;3.20;;;;;;;6.22;40.20;101682.25;5024954;28;20041;-76
2022/04/19 02:20:27;;;;;;;7.20;3.63;;;;;;;6.19;40.12;101683.13;5026988;28;20287;-78
2022/04/19 02:22:52;;;;;;;8.80;3.45;;;;;;;6.16;40.15;101679.72;5035644;28;20170;-77
2022/04/19 02:25:19;;;;;;;6.35;3.30;;;;;;;6.02;40.44;101685.88;5060014;28;20025;-79
2022/04/19 02:27:45;;;;;;;11.35;3.47;;;;;;;6.12;40.13;101680.59;5040201;28;20071;-78
2022/04/19 02:30:16;;;;;;;8.20;3.15;;;;;;;6.11;40.18;101684.09;5027932;28;20029;-76
2022/04/19 02:32:48;;;;;;;10.10;4.13;;;;;;;6.11;40.39;101684.09;5041423;28;20041;-77
2022/04/19 02:35:17;;;;;;;8.95;3.30;;;;;;;6.00;40.80;101685.03;5032635;28;20033;-80
2022/04/19 02:37:53;;;;;;;9.73;3.55;;;;;;;6.08;40.35;101688.44;5044669;28;20045;-76
2022/04/19 02:40:24;;;;;;;9.32;3.25;;;;;;;5.94;40.32;101682.47;5062083;28;20128;-76
2022/04/19 02:42:54;;;;;;;8.90;3.20;;;;;;;6.02;40.57;101688.47;5042644;28;20045;-77
2022/04/19 02:45:22;;;;;;;7.55;2.90;;;;;;;5.98;40.48;101686.78;5048052;28;20115;-77
2022/04/19 02:48:04;;;;;;;3.95;2.72;;;;;;;5.86;40.62;101686.88;5046818;28;20049;-78
2022/04/19 02:50:33;;;;;;;7.38;3.25;;;;;;;5.90;40.45;101685.09;5044259;28;20033;-78
2022/04/19 02:53:00;;;;;;;6.20;3.92;;;;;;;5.75;40.95;101675.69;5056736;28;20037;-79
2022/04/19 02:55:27;;;;;;;5.85;2.80;;;;;;;5.80;40.48;101679.97;5026858;28;20040;-78
2022/04/19 02:57:53;;;;;;;9.75;3.30;;;;;;;5.79;40.78;101672.19;5041337;28;20044;-78
2022/04/19 03:00:20;;;;;;;10.77;3.70;;;;;;;5.80;40.50;101676.53;5045319;28;20025;-77
2022/04/19 03:02:46;;;;;;;9.07;3.05;;;;;;;5.82;40.57;101677.38;5056912;28;20041;-79
2022/04/19 03:05:12;;;;;;;7.20;2.65;;;;;;;5.74;40.49;101677.44;5041856;28;20043;-76
2022/04/19 03:07:38;;;;;;;5.07;2.80;;;;;;;5.65;40.96;101674.91;5041338;28;20052;-78
2022/04/19 03:10:06;;;;;;;8.73;2.70;;;;;;;5.69;40.51;101680.94;5057573;28;20108;-79
2022/04/19 03:12:32;;;;;;;7.75;3.40;;;;;;;5.75;40.67;101671.38;5043487;28;20068;-78
2022/04/19 03:15:08;;;;;;;7.60;2.90;;;;;;;5.76;40.56;101678.28;5042257;28;20028;-78
2022/04/19 03:17:34;;;;;;;4.57;2.28;;;;;;;5.75;40.18;101675.69;5043732;28;20048;-76
2022/04/19 03:20:01;;;;;;;7.57;2.67;;;;;;;5.62;40.57;101680.13;5040513;28;20013;-78
2022/04/19 03:27:41;;;;;;;6.70;2.78;;;;;;;5.56;40.83;101673.22;5025590;28;20048;-78
2022/04/19 03:27:56;;;;;;;5.00;2.22;;;;;;;5.46;41.08;101674.16;5056491;28;20075;-77
2022/04/19 03:30:22;;;;;;;7.03;2.55;;;;;;;5.35;41.29;101683.75;5027537;28;20106;-76
2022/04/19 03:32:52;;;;;;;3.75;2.70;;;;;;;5.35;41.13;101682.00;5055073;28;20143;-79
2022/04/19 03:35:19;;;;;;;5.93;3.05;;;;;;;5.23;41.25;101688.13;5041442;28;20123;-78
2022/04/19 03:37:45;;;;;;;5.68;2.65;;;;;;;5.17;41.73;101685.53;5022990;28;20045;-79
2022/04/19 03:40:10;;;;;;;5.95;2.78;;;;;;;5.19;41.53;101686.41;5025009;28;20086;-78
2022/04/19 03:42:36;;;;;;;5.75;3.17;;;;;;;5.09;41.58;101687.28;5023883;28;20460;-77
2022/04/19 03:45:02;;;;;;;5.63;3.05;;;;;;;5.03;41.88;101684.72;5025712;28;20804;-79
2022/04/19 03:47:27;;;;;;;7.85;2.70;;;;;;;4.94;42.21;101688.19;5024006;28;20056;-78
2022/04/19 03:49:53;;;;;;;7.93;2.72;;;;;;;4.93;42.55;101683.03;5040574;28;20414;-76
2022/04/19 03:52:18;;;;;;;11.23;3.42;;;;;;;4.89;42.52;101682.19;5037348;28;20033;-77
2022/04/19 03:54:44;;;;;;;7.43;3.05;;;;;;;4.89;42.58;101679.59;5026418;28;20068;-78
2022/04/19 03:57:11;;;;;;;7.75;2.97;;;;;;;4.94;42.55;101683.03;5025919;28;20102;-78
2022/04/19 03:59:38;;;;;;;5.72;2.85;;;;;;;4.97;42.69;101674.41;5026422;28;20056;-78
2022/04/19 04:02:06;;;;;;;4.63;3.03;;;;;;;5.11;42.57;101684.72;5055574;28;20954;-76
2022/04/19 04:04:32;;;;;;;9.00;2.70;;;;;;;5.17;42.31;101682.94;5026903;28;20115;-78
2022/04/19 04:06:59;;;;;;;5.90;1.75;;;;;;;5.21;42.00;101689.84;5058617;28;20067;-77
2022/04/19 04:09:26;;;;;;;7.78;2.60;;;;;;;5.33;41.65;101688.91;5030464;28;20029;-78
2022/04/19 04:11:52;;;;;;;3.85;2.13;;;;;;;5.44;41.53;101686.28;5044778;28;20141;-78
2022/04/19 04:14:18;;;;;;;6.57;3.28;;;;;;;5.44;41.46;101691.47;5061351;28;20033;-78
2022/04/19 04:16:44;;;;;;;5.13;2.83;;;;;;;5.41;41.30;101691.47;5027450;28;20037;-77
2022/04/19 04:19:10;;;;;;;7.78;2.70;;;;;;;5.40;41.31;101692.34;5029823;28;20044;-76
2022/04/19 04:21:35;;;;;;;8.43;2.25;;;;;;;5.44;41.07;101694.91;5046455;28;20029;-77
2022/04/19 04:24:02;;;;;;;4.15;2.35;;;;;;;5.34;40.97;101694.97;5026435;28;20612;-77
2022/04/19 04:26:32;;;;;;;3.73;2.07;;;;;;;5.60;40.72;101698.28;5033192;28;20112;-77
2022/04/19 04:28:58;;;;;;;3.38;2.35;;;;;;;5.57;40.71;101697.41;5025435;28;20037;-77
2022/04/19 04:31:24;;;;;;;4.85;2.40;;;;;;;5.64;40.39;101699.13;5062596;28;20025;-77
2022/04/19 04:33:50;;;;;;;5.00;2.45;;;;;;;5.67;40.33;101697.34;5026521;28;20127;-78
2022/04/19 04:36:16;;;;;;;10.70;2.58;;;;;;;5.73;40.40;101700.81;5064353;28;20068;-78
2022/04/19 04:38:42;;;;;;;6.80;2.42;;;;;;;6.00;40.27;101700.59;5028521;28;20037;-78
2022/04/19 04:41:17;;;;;;;4.13;1.92;;;;;;;6.07;39.72;101709.19;5063493;28;20039;-76
2022/04/19 04:43:43;;;;;;;6.53;2.45;;;;;;;5.94;39.77;101708.41;5030651;28;20049;-77
2022/04/19 04:51:38;;;;;;;5.50;1.95;;;;;;;5.86;39.97;101718.88;5060887;28;20048;-77
2022/04/19 04:54:04;;;;;;;4.25;2.45;;;;;;;5.82;39.87;101713.72;5023857;28;20052;-78
2022/04/19 04:56:33;;;;;;;5.18;2.28;;;;;;;5.90;40.11;101711.06;5046310;28;20220;-79
2022/04/19 04:58:59;;;;;;;3.65;2.42;;;;;;;5.94;39.87;101710.16;5028972;28;20410;-78
2022/04/19 05:01:28;;;;;;;6.32;2.30;;;;;;;5.92;39.81;101710.16;5030150;28;20070;-78
2022/04/19 05:03:53;;;;;;;4.53;2.05;;;;;;;6.02;39.43;101710.97;5040288;28;20036;-76
2022/04/19 05:06:19;;;;;;;5.13;2.28;;;;;;;5.99;39.37;101722.22;5063003;28;20025;-79
2022/04/19 05:08:45;;;;;;;5.40;2.35;;;;;;;6.07;39.38;101725.63;5044032;28;20075;-78
2022/04/19 05:11:11;;;;;;;3.17;1.67;;;;;;;6.15;38.91;101722.09;5044778;28;20029;-77
2022/04/19 05:13:37;;;;;;;5.30;2.08;;;;;;;6.20;38.59;101720.34;5042738;28;20025;-77
2022/04/19 05:16:03;;;;;;;3.03;1.50;;;;;;;6.48;37.79;101715.78;5042401;28;20772;-76
2022/04/19 05:18:31;;;;;;;5.13;1.75;;;;;;;8.05;34.88;101719.94;5045531;28;20037;-78
2022/04/19 05:20:56;;;;;;;4.30;1.83;;;;;;;9.78;31.92;101707.84;5025132;28;20029;-79
2022/04/19 05:23:23;;;;;;;3.72;1.98;;;;;;;10.99;29.33;101717.00;5043979;28;20056;-77
2022/04/19 05:25:48;;;;;;;4.65;1.52;;;;;;;12.11;27.76;101711.88;5044604;28;20049;-78
2022/04/19 05:28:14;;;;;;;4.43;2.10;;;;;;;12.68;26.44;101714.28;5031600;28;20039;-78
2022/04/19 05:30:40;;;;;;;4.25;1.80;;;;;;;13.00;26.11;101712.28;5025847;28;20037;-76
2022/04/19 05:33:06;;;;;;;4.95;2.15;;;;;;;13.58;25.57;101716.25;5044413;28;20044;-74
2022/04/19 05:35:32;;;;;;;4.18;2.22;;;;;;;14.52;24.56;101718.53;5027517;28;20033;-76
2022/04/19 05:37:59;;;;;;;4.82;1.98;;;;;;;15.27;23.51;101715.19;5044988;28;20049;-76
2022/04/19 05:40:28;;;;;;;4.32;1.75;;;;;;;15.59;22.60;101718.09;5028969;28;20104;-76
2022/04/19 05:42:54;;;;;;;8.82;1.90;;;;;;;16.09;21.70;101721.88;5043973;28;20047;-77
2022/04/19 05:45:20;;;;;;;5.28;1.50;;;;;;;16.11;21.51;101712.09;5061442;28;20025;-77
2022/04/19 05:47:46;;;;;;;3.92;1.92;;;;;;;16.20;22.04;101714.25;5028014;28;20041;-78
2022/04/19 05:50:12;;;;;;;6.85;1.75;;;;;;;16.37;20.74;101711.59;5028586;28;20025;-77
2022/04/19 05:52:38;;;;;;;7.55;1.55;;;;;;;16.51;20.47;101710.03;5044198;28;20048;-77
2022/04/19 05:55:08;;;;;;;2.40;1.30;;;;;;;17.46;19.25;101707.56;5053410;28;20036;-77
2022/04/19 05:57:34;;;;;;;6.70;2.08;;;;;;;17.02;19.76;101706.47;5045312;28;20029;-78
2022/04/19 06:00:00;;;;;;;3.83;2.10;;;;;;;16.88;20.16;101710.78;5040739;28;20044;-77
2022/04/19 06:05:13;;;;;;;3.10;2.00;;;;;;;16.75;19.78;101711.41;5040925;28;20390;-77
2022/04/19 06:07:45;;;;;;;2.35;1.30;;;;;;;16.82;20.32;101712.81;5028000;28;20120;-75
2022/04/19 06:10:11;;;;;;;3.40;1.50;;;;;;;16.96;20.03;101720.00;5060189;28;20025;-77
2022/04/19 06:12:38;;;;;;;3.17;1.63;;;;;;;16.36;20.59;101727.53;5027497;28;20052;-77
2022/04/19 06:15:05;;;;;;;2.47;1.25;;;;;;;16.20;20.97;101724.81;5058308;28;20104;-76
2022/04/19 06:17:32;;;;;;;7.75;2.33;;;;;;;16.00;21.21;101724.00;5057618;28;20554;-78
2022/04/19 06:20:04;;;;;;;7.55;2.03;;;;;;;17.55;19.86;101720.31;5036835;28;20067;-76
2022/04/19 06:22:30;;;;;;;3.85;2.05;;;;;;;18.35;19.18;101713.06;5058957;28;20044;-76
2022/04/19 06:25:02;;;;;;;5.28;2.08;;;;;;;17.58;19.64;101716.63;5044101;28;20462;-78
2022/04/19 06:27:28;;;;;;;4.07;1.55;;;;;;;17.50;20.07;101716.22;5057382;28;20052;-77
2022/04/19 06:29:57;;;;;;;1.63;1.42;;;;;;;17.37;20.20;101718.66;5057988;28;20041;-75
2022/04/19 06:32:24;;;;;;;7.15;2.80;;;;;;;17.44;20.03;101710.28;5041159;28;20041;-77
2022/04/19 06:34:53;;;;;;;4.93;1.42;;;;;;;17.50;20.15;101717.06;5055931;28;20032;-73
2022/04/19 06:37:26;;;;;;;2.55;1.05;;;;;;;18.99;18.52;101718.03;5026088;28;20123;-78
2022/04/19 06:40:00;;;;;;;7.57;1.33;;;;;;;19.88;18.05;101712.31;5058105;28;20045;-77
2022/04/19 06:42:28;;;;;;;2.85;1.15;;;;;;;19.89;17.72;101711.38;5042762;28;20115;-78
2022/04/19 06:45:17;;;;;;;2.85;0.90;;;;;;;20.09;17.58;101721.50;5048488;28;20033;-76
2022/04/19 06:47:59;;;;;;;2.05;0.70;;;;;;;20.38;17.00;101720.53;5041560;28;20041;-76
2022/04/19 06:50:27;;;;;;;5.13;1.90;;;;;;;20.72;16.97;101713.72;5073494;28;20032;-77
2022/04/19 06:52:57;;;;;;;17.48;5.95;;;;;;;21.02;16.07;101712.53;5024769;28;20100;-78
2022/04/19 06:55:43;;;;;;;4.18;0.98;;;;;;;20.16;16.72;101716.63;5054269;28;20637;-76
2022/04/19 06:58:09;;;;;;;2.22;0.47;;;;;;;20.22;17.01;101713.59;5023795;28;20128;-76
2022/04/19 07:00:35;;;;;;;3.35;1.30;;;;;;;20.29;16.89;101722.00;5039903;28;20055;-77
2022/04/19 07:03:02;;;;;;;3.33;0.77;;;;;;;19.94;17.33;101713.72;5025502;28;20700;-76
2022/04/19 07:05:46;;;;;;;4.07;0.60;;;;;;;19.29;17.83;101721.38;5053842;28;20186;-77
2022/04/19 07:08:11;;;;;;;1.92;0.50;;;;;;;19.96;17.20;101717.13;5054576;28;20155;-78
2022/04/19 07:10:37;;;;;;;9.50;3.40;;;;;;;20.11;16.75;101714.28;5056500;28;20067;-77
2022/04/19 07:13:24;;;;;;;3.70;0.30;;;;;;;19.84;17.05;101718.81;5038925;28;20047;-78
2022/04/19 07:15:50;;;;;;;2.83;0.40;;;;;;;20.60;16.44;101719.91;5031935;28;20048;-77
2022/04/19 07:18:17;;;;;;;2.08;0.50;;;;;;;20.71;16.81;101720.00;5072934;28;20359;-78
2022/04/19 07:28:57;;;;;;;2.25;0.90;;;;;;;21.37;15.73;101720.59;5030321;28;20045;-76
2022/04/19 07:31:22;;;;;;;1.45;0.30;;;;;;;20.87;16.20;101717.97;5043091;28;20025;-78
2022/04/19 07:33:48;;;;;;;1.88;0.38;;;;;;;20.54;15.57;101722.00;5037987;28;20383;-77
2022/04/19 07:36:14;;;;;;;1.48;0.20;;;;;;;20.27;16.79;101724.75;5041245;28;20035;-77
2022/04/19 07:38:40;;;;;;;4.45;0.40;;;;;;;20.53;15.81;101728.28;5041659;28;20052;-77
2022/04/19 07:41:20;;;;;;;3.13;0.60;;;;;;;20.03;16.10;101729.88;5045163;28;20539;-78
2022/04/19 07:43:47;;;;;;;0.95;0.10;;;;;;;19.57;16.35;101730.28;5043196;28;20048;-78
2022/04/19 07:46:16;;;;;;;1.88;0.63;;;;;;;19.76;16.81;101737.00;5039256;28;20037;-80
2022/04/19 07:48:44;;;;;;;0.52;0.13;;;;;;;20.65;15.81;101729.22;5040662;28;20060;-77
2022/04/19 07:51:13;;;;;;;0.80;0.20;;;;;;;19.64;16.01;101734.22;5027976;28;20106;-78
2022/04/19 07:53:41;;;;;;;2.63;0.38;;;;;;;19.41;16.64;101734.81;5057325;28;20098;-76
2022/04/19 07:56:06;;;;;;;0.98;0.10;;;;;;;19.47;16.64;101731.78;5061110;28;20033;-77
2022/04/19 07:58:32;;;;;;;3.08;0.70;;;;;;;19.02;17.46;101737.25;5041037;28;20578;-77
2022/04/19 08:00:59;;;;;;;0.60;0.20;;;;;;;19.13;16.69;101735.72;5058235;28;20028;-78
2022/04/19 08:03:25;;;;;;;1.75;0.40;;;;;;;18.49;17.36;101736.03;5024561;28;20029;-79
2022/04/19 08:05:51;;;;;;;0.73;0.30;;;;;;;18.57;18.18;101741.75;5024433;28;20029;-76
2022/04/19 08:08:18;;;;;;;2.30;0.38;;;;;;;19.14;16.87;101743.56;5036675;28;20156;-79
2022/04/19 08:10:44;;;;;;;2.45;0.30;;;;;;;18.08;17.95;101741.97;5043101;28;20041;-77
2022/04/19 08:13:10;;;;;;;11.25;4.60;;;;;;;18.94;17.38;101751.91;5041165;28;20057;-78
2022/04/19 08:15:35;;;;;;;2.42;0.20;;;;;;;19.17;17.68;101748.69;5022374;28;20139;-78
2022/04/19 08:18:02;;;;;;;1.08;0.20;;;;;;;18.93;17.73;101750.22;5058316;28;20122;-78
2022/04/19 08:20:27;;;;;;;0.70;0.20;;;;;;;18.40;18.15;101748.03;5060704;28;20072;-75
2022/04/19 08:22:53;;;;;;;0.60;0.20;;;;;;;18.67;17.85;101749.97;5024712;28;20208;-77
2022/04/19 08:25:24;;;;;;;2.00;0.28;;;;;;;19.14;18.01;101754.16;5028991;28;20032;-76
2022/04/19 08:27:51;;;;;;;2.55;0.30;;;;;;;19.12;17.60;101737.50;5042715;28;20040;-78
2022/04/19 08:30:18;;;;;;;2.03;0.57;;;;;;;18.52;18.52;101740.31;5062264;28;20075;-76
2022/04/19 08:32:48;;;;;;;1.13;0.20;;;;;;;18.93;18.47;101745.75;5027851;28;20054;-78
2022/04/19 08:35:17;;;;;;;1.63;0.45;;;;;;;19.57;17.44;101742.66;5027153;28;20428;-78
2022/04/19 08:37:43;;;;;;;3.47;0.40;;;;;;;19.09;18.24;101762.41;5029590;28;20191;-77
2022/04/19 08:40:11;;;;;;;0.95;0.30;;;;;;;20.37;17.60;101751.50;5032066;28;20028;-77
2022/04/19 08:42:38;;;;;;;1.27;0.28;;;;;;;21.00;16.84;101754.28;5041788;28;20048;-78
2022/04/19 08:45:05;;;;;;;1.98;0.60;;;;;;;19.69;17.45;101741.88;5039575;28;20123;-76
2022/04/19 08:47:33;;;;;;;2.50;0.47;;;;;;;19.36;18.38;101750.16;5056391;28;20067;-76
2022/04/19 08:50:04;;;;;;;1.55;0.47;;;;;;;18.66;19.24;101756.22;5021283;28;20210;-75
2022/04/19 08:52:32;;;;;;;1.45;0.77;;;;;;;19.44;18.24;101755.84;5041266;28;20048;-77
2022/04/19 08:57:41;;;;;;;0.98;0.50;;;;;;;18.80;19.38;101756.22;5045580;28;20037;-79
2022/04/19 09:00:08;;;;;;;1.60;0.68;;;;;;;18.93;19.54;101756.34;5060286;28;20029;-76
2022/04/19 09:02:37;;;;;;;1.48;0.80;;;;;;;19.12;19.38;101750.75;5028048;28;20218;-78
2022/04/19 09:05:14;;;;;;;2.03;0.80;;;;;;;18.79;20.27;101754.53;5042356;28;20036;-78
2022/04/19 09:07:40;;;;;;;3.85;0.90;;;;;;;17.70;19.96;101752.97;5059419;28;20043;-78
2022/04/19 09:10:07;;;;;;;1.85;1.27;;;;;;;17.57;20.27;101762.50;5060303;28;20074;-78
2022/04/19 09:12:33;;;;;;;2.65;0.70;;;;;;;15.17;22.72;101764.78;5043095;28;20101;-79
2022/04/19 09:15:06;;;;;;;4.22;0.93;;;;;;;15.33;23.44;101758.84;5026371;28;20029;-81
2022/04/19 09:17:42;;;;;;;2.85;0.90;;;;;;;16.12;22.66;101759.47;5043394;28;20052;-77
2022/04/19 09:20:19;;;;;;;3.97;0.80;;;;;;;15.77;22.59;101758.50;5042574;28;20029;-80
2022/04/19 09:23:01;;;;;;;1.20;0.68;;;;;;;15.17;23.13;101764.78;5057252;28;20617;-79
2022/04/19 09:25:26;;;;;;;2.72;0.80;;;;;;;15.06;23.25;101761.78;5059335;28;20273;-78
2022/04/19 09:27:54;;;;;;;4.40;1.50;;;;;;;15.63;23.59;101766.22;5075074;28;20021;-77
2022/04/19 09:30:32;;;;;;;4.40;1.13;;;;;;;16.36;22.40;101760.03;5060955;28;20044;-79
2022/04/19 09:33:04;;;;;;;1.63;0.80;;;;;;;15.86;23.07;101763.34;5039591;28;20630;-76
2022/04/19 09:35:54;;;;;;;2.53;1.15;;;;;;;15.88;23.35;101769.38;5040665;28;20041;-76
2022/04/19 09:38:39;;;;;;;2.20;0.90;;;;;;;15.85;22.95;101755.53;5033821;28;20044;-77
2022/04/19 09:41:07;;;;;;;2.75;0.88;;;;;;;15.21;23.22;101759.34;5037723;28;20503;-78
2022/04/19 09:43:33;;;;;;;2.92;1.10;;;;;;;15.45;22.88;101760.91;5056061;28;20075;-76
2022/04/19 09:46:03;;;;;;;4.03;1.25;;;;;;;14.95;23.86;101764.03;5054689;28;20056;-77
2022/04/19 09:48:33;;;;;;;2.40;1.23;;;;;;;15.46;23.56;101765.25;5038611;28;20033;-77
2022/04/19 09:51:03;;;;;;;3.38;1.98;;;;;;;15.18;23.51;101755.94;5054356;28;20028;-77
2022/04/19 09:53:44;;;;;;;2.55;1.30;;;;;;;14.14;25.37;101758.66;5038782;28;20045;-76
2022/04/19 09:56:15;;;;;;;3.38;1.38;;;;;;;14.49;24.85;101756.34;5014399;28;20123;-77
2022/04/19 09:58:44;;;;;;;4.85;1.85;;;;;;;14.60;24.60;101755.91;5023867;28;20522;-76
2022/04/19 10:08:10;;;;;;;3.05;1.60;;;;;;;15.41;23.78;101750.56;5037493;28;20025;-77
2022/04/19 10:09:25;;;;;;;3.00;1.25;;;;;;;15.47;24.44;101753.78;5054258;28;20106;-76
2022/04/19 10:11:51;;;;;;;2.50;1.40;;;;;;;15.92;23.25;101755.13;5028875;28;20127;-78
2022/04/19 10:14:18;;;;;;;5.05;1.80;;;;;;;16.25;22.74;101754.44;5055666;28;20232;-79
2022/04/19 10:16:45;;;;;;;6.90;1.60;;;;;;;16.20;24.11;101759.94;5040801;28;20796;-77
2022/04/19 10:19:13;;;;;;;8.10;4.93;;;;;;;16.50;23.37;101747.91;5040241;28;20035;-79
2022/04/19 10:21:44;;;;;;;2.58;1.77;;;;;;;17.42;21.56;101750.97;5024989;28;20063;-77
2022/04/19 10:24:15;;;;;;;6.77;1.40;;;;;;;16.75;22.30;101748.38;5017499;28;20151;-77
2022/04/19 10:26:46;;;;;;;4.13;2.25;;;;;;;15.42;23.75;101750.50;5053304;28;20509;-78
2022/04/19 10:29:30;;;;;;;3.78;1.83;;;;;;;14.88;24.83;101749.41;5036386;28;20071;-79
2022/04/19 10:32:02;;;;;;;4.28;1.75;;;;;;;15.33;24.11;101746.53;5034887;28;20053;-78
2022/04/19 10:34:30;;;;;;;6.30;1.73;;;;;;;15.46;25.16;101740.66;5070306;28;20046;-78
2022/04/19 10:37:04;;;;;;;2.75;1.88;;;;;;;15.58;24.65;101735.69;5038588;28;20043;-77
2022/04/19 10:39:33;;;;;;;6.97;2.15;;;;;;;16.97;23.71;101731.41;5066512;28;20036;-79
2022/04/19 10:42:05;;;;;;;4.00;1.45;;;;;;;16.96;23.17;101725.28;5023706;28;20111;-79
2022/04/19 10:44:30;;;;;;;;;;;;;;;17.39;22.48;101732.66;5043701;28;20040;-80
2022/04/19 10:47:11;;;;;;;4.88;1.65;;;;;;;17.95;22.78;101736.53;5041897;28;20567;-78
2022/04/19 10:50:24;;;;;;;4.50;2.03;;;;;;;17.43;21.51;101731.53;5057747;28;20108;-80
2022/04/19 10:52:51;;;;;;;9.80;1.80;;;;;;;17.54;22.27;101742.41;4976279;28;20062;-78
2022/04/19 10:55:23;;;;;;;4.53;1.67;;;;;;;18.04;21.65;101741.28;5033846;28;20037;-78
2022/04/19 10:58:23;;;;;;;4.28;2.15;;;;;;;17.47;21.52;101733.06;5025037;28;20514;-79
2022/04/19 11:00:56;;;;;;;4.65;1.50;;;;;;;17.44;21.69;101730.59;5061684;28;20028;-78
2022/04/19 11:03:37;;;;;;;8.43;2.53;;;;;;;17.34;21.78;101739.97;5026221;28;20502;-80
2022/04/19 11:06:31;;;;;;;6.10;2.33;;;;;;;17.23;23.11;101732.63;5057440;28;20036;-78
2022/04/19 11:09:07;;;;;;;5.60;2.08;;;;;;;16.86;22.17;101739.03;5020465;28;20045;-77
2022/04/19 11:11:53;;;;;;;5.15;2.38;;;;;;;17.11;21.94;101734.13;5030202;28;20040;-78
2022/04/19 11:14:57;;;;;;;7.30;2.88;;;;;;;17.33;21.91;101730.34;5045705;28;20205;-81
2022/04/19 11:17:42;;;;;;;7.15;2.47;;;;;;;17.64;21.51;101724.22;5059474;28;20044;-80
2022/04/19 11:21:05;;;;;;;4.43;2.13;;;;;;;17.45;22.06;101727.03;5044792;28;20043;-80
2022/04/19 11:23:50;;;;;;;5.57;3.03;;;;;;;17.68;21.96;101727.56;5039224;28;20125;-81
2022/04/19 11:26:24;;;;;;;8.13;2.35;;;;;;;18.05;22.09;101735.06;5010081;28;20028;-79
2022/04/19 11:29:14;;;;;;;2.92;1.83;;;;;;;18.41;20.71;101733.03;5044662;28;20152;-79
2022/04/19 11:31:46;;;;;;;4.82;2.65;;;;;;;17.81;21.15;101733.84;5079602;28;20033;-82
2022/04/19 11:34:14;;;;;;;8.68;2.80;;;;;;;17.63;22.36;101728.66;5058094;28;20056;-79
2022/04/19 11:36:41;;;;;;;9.63;2.92;;;;;;;17.97;21.01;101729.38;5046027;28;20124;-78
2022/04/19 11:39:08;;;;;;;8.00;2.58;;;;;;;18.14;21.63;101727.53;5044416;28;20037;-82
2022/04/19 11:47:47;;;;;;;3.70;1.60;;;;;;;17.46;22.19;101731.34;5043070;28;20049;-78
2022/04/19 11:50:32;;;;;;;9.20;2.33;;;;;;;17.92;24.18;101730.59;5042481;28;20037;-80
2022/04/19 11:52:59;;;;;;;3.95;2.28;;;;;;;17.68;22.34;101731.03;5021724;28;20080;-79
2022/04/19 11:55:27;;;;;;;6.03;3.08;;;;;;;17.32;23.29;101732.13;5042977;28;20017;-78
2022/04/19 11:58:10;;;;;;;10.10;2.90;;;;;;;17.91;23.65;101727.06;5023792;28;20389;-78
2022/04/19 12:00:36;;;;;;;6.07;3.03;;;;;;;17.80;22.45;101729.47;5042914;28;20111;-79
2022/04/19 12:03:27;;;;;;;13.23;3.00;;;;;;;17.41;23.47;101736.91;5040224;28;20048;-79
2022/04/19 12:06:05;;;;;;;8.30;3.10;;;;;;;17.81;22.98;101728.56;5045553;28;20049;-81
2022/04/19 12:08:33;;;;;;;5.53;2.38;;;;;;;17.43;23.73;101723.63;5041765;28;20041;-79
2022/04/19 12:11:02;;;;;;;4.82;2.28;;;;;;;17.02;24.03;101724.06;5041492;28;20037;-78
2022/04/19 12:13:28;;;;;;;9.15;3.13;;;;;;;17.33;24.13;101732.97;5040091;28;20047;-79
2022/04/19 12:15:54;;;;;;;5.05;2.20;;;;;;;17.87;24.22;101730.81;5042005;28;20063;-81
2022/04/19 12:18:30;;;;;;;6.80;2.40;;;;;;;17.83;23.81;101729.31;5066908;28;20091;-80